Главная страница
METAR-TAF:

METAR-TAF

Аэропорты :

Атырау, Казахстан

широта: 47-07-19N, долгота: 051-49-17E, высота над уровнем моря: -22 м

Текущие метеонаблюдения

Эта сводка был подготовлена 36 минут назад, в 06:00 UTC
Ветер 12 Узел от северный
Температура 1°C
Влажность 80%
Давление 1024 hPa
Видимость: 5000 м
Рассеянная облачность на высоте 1000 фута
Рассеянная облачность на высоте 3000 фута, Кучево-дождевые.
дымка

METAR: UATG 190600Z 35006MPS 5000 BR BKN010 BKN030CB 01/M02 Q1024 R32/CLRD70 NOSIG RMK QFE770/1027

Время: 12:36 (06:36 UTC)

Прогноз

Эта сводка был подготовлена 1 час и 36 минут назад, в 05:00 UTC
Прогноз действительный с 19-го 06 UTC до 20-го 06 UTC
Ветер 16 Узел от северный
Видимость: 5000 м
Рассеянная облачность на высоте 1100 фута
Рассеянная облачность на высоте 2000 фута, Кучево-дождевые.
дымка
временами
С 19-го 06 UTC до 19-го 10 UTC
Рассеянная облачность на высоте 500 фута

TAF: UATG 190500Z 1906/2006 36008MPS 5000 BR BKN011 BKN020CB TX09/1910Z TN01/2003Z TEMPO 1906/1910 BKN005

Метеонаблюдения и прогнозы для более 4000 аэропортов (сводки METAR и TAF).

Имеющиеся станции представлены на карте желтыми и красными точками.

Чтобы увидеть название станции, наведите на нее мышь.

Затем щелкните, чтобы увидеть метеонаблюдения и метеопрогнозы.

Управление картой: чтобы увеличить масштаб, щелкните зеленые кнопки с черным крестиком; чтобы уменьшить масштаб, щелкните зеленую кнопку с тире; для просмотра соседних карт щелкайте зеленые стрелки.


METAR-TAF: